Time;durP1;ratioP1;P1;durP2;ratioP2;P2;SDS_P1;SDS_P2;PMS_P1;PMS_P2;Temp;Humidity;BMP_temperature;BMP_pressure;BME280_temperature;BME280_humidity;BME280_pressure;Samples;Min_cycle;Max_cycle;Signal;HPM_P1;HPM_P2
2023/05/12 00:00:19;;;;;;;2.33;1.85;;;;;;;;;;10264052;28;20049;-88
2023/05/12 00:05:31;;;;;;;1.98;1.65;;;;;;;;;;10264051;28;20101;-90
2023/05/12 00:10:42;;;;;;;2.67;2.10;;;;;;;;;;10263097;28;20051;-87
2023/05/12 00:15:57;;;;;;;2.08;1.88;;;;;;;;;;10264537;28;20131;-88
2023/05/12 00:21:08;;;;;;;2.10;1.80;;;;;;;;;;10257243;28;20065;-88
2023/05/12 00:26:21;;;;;;;2.65;1.77;;;;;;;;;;10271572;28;20077;-88
2023/05/12 00:31:29;;;;;;;2.10;1.90;;;;;;;;;;10270804;28;20066;-88
2023/05/12 00:36:36;;;;;;;2.13;1.92;;;;;;;;;;10270439;28;20054;-88
2023/05/12 00:41:43;;;;;;;2.60;2.17;;;;;;;;;;10259089;28;20051;-89
2023/05/12 00:46:48;;;;;;;3.00;2.03;;;;;;;;;;10269990;28;20061;-89
2023/05/12 00:51:59;;;;;;;2.88;2.22;;;;;;;;;;10269691;28;20047;-88
2023/05/12 00:57:09;;;;;;;2.65;2.20;;;;;;;;;;10270530;28;20049;-89
2023/05/12 01:02:19;;;;;;;2.90;2.58;;;;;;;;;;10268440;28;20534;-88
2023/05/12 01:07:34;;;;;;;2.42;2.05;;;;;;;;;;10270089;28;20071;-89
2023/05/12 01:12:57;;;;;;;2.33;1.90;;;;;;;;;;10260084;28;20054;-90
2023/05/12 01:18:13;;;;;;;2.42;2.00;;;;;;;;;;10259895;28;20047;-88
2023/05/12 01:23:36;;;;;;;3.10;2.30;;;;;;;;;;10268634;28;20043;-89
2023/05/12 01:28:56;;;;;;;3.08;1.88;;;;;;;;;;10268095;28;20538;-88
2023/05/12 01:34:06;;;;;;;4.30;2.17;;;;;;;;;;10252811;28;20043;-89
2023/05/12 01:39:11;;;;;;;2.88;2.15;;;;;;;;;;10276109;28;20053;-89
2023/05/12 01:44:17;;;;;;;2.13;1.92;;;;;;;;;;10270137;28;20106;-88
2023/05/12 01:49:25;;;;;;;1.98;1.80;;;;;;;;;;10258815;28;20487;-89
2023/05/12 01:54:53;;;;;;;3.13;2.00;;;;;;;;;;10269084;28;20104;-90
2023/05/12 02:00:00;;;;;;;2.17;1.98;;;;;;;;;;10257487;28;20102;-88
2023/05/12 02:05:14;;;;;;;3.17;2.45;;;;;;;;;;10260876;28;20450;-89
2023/05/12 02:10:21;;;;;;;2.80;2.35;;;;;;;;;;10274783;28;20097;-91
2023/05/12 02:15:27;;;;;;;2.17;1.98;;;;;;;;;;10266351;28;20054;-90
2023/05/12 02:20:35;;;;;;;2.05;1.75;;;;;;;;;;10264552;28;20079;-88
2023/05/12 02:25:39;;;;;;;1.60;1.50;;;;;;;;;;10266307;28;20118;-88
2023/05/12 02:30:47;;;;;;;2.78;1.23;;;;;;;;;;10263911;28;20043;-88
2023/05/12 02:35:55;;;;;;;2.05;1.55;;;;;;;;;;10266929;28;20740;-89
2023/05/12 02:41:00;;;;;;;1.30;1.20;;;;;;;;;;10264676;28;20039;-88
2023/05/12 02:46:21;;;;;;;1.40;1.30;;;;;;;;;;10264508;28;20512;-89
2023/05/12 02:51:30;;;;;;;1.45;1.35;;;;;;;;;;10279612;28;20049;-88
2023/05/12 02:56:39;;;;;;;1.02;0.93;;;;;;;;;;10264205;28;20121;-90
2023/05/12 03:01:47;;;;;;;0.77;0.77;;;;;;;;;;10263503;28;20068;-90
2023/05/12 03:07:03;;;;;;;0.80;0.70;;;;;;;;;;10261030;28;20046;-90
2023/05/12 03:12:09;;;;;;;0.90;0.70;;;;;;;;;;10264004;28;20043;-88
2023/05/12 03:17:15;;;;;;;0.82;0.82;;;;;;;;;;10253917;28;20564;-88
2023/05/12 03:22:19;;;;;;;2.50;0.90;;;;;;;;;;10265877;28;20035;-89
2023/05/12 03:27:24;;;;;;;0.95;0.90;;;;;;;;;;10264027;28;20039;-89
2023/05/12 03:32:33;;;;;;;0.67;0.67;;;;;;;;;;10223599;28;20517;-88
2023/05/12 03:37:45;;;;;;;0.90;0.90;;;;;;;;;;10224123;28;20055;-90
2023/05/12 03:42:50;;;;;;;0.63;0.50;;;;;;;;;;10182853;28;20532;-90
2023/05/12 03:47:56;;;;;;;0.32;0.32;;;;;;;;;;10223017;28;20093;-89
2023/05/12 03:53:03;;;;;;;0.20;0.20;;;;;;;;;;10226599;28;20039;-89
2023/05/12 03:58:08;;;;;;;0.20;0.20;;;;;;;;;;10222592;28;20110;-89
2023/05/12 04:03:18;;;;;;;0.30;0.28;;;;;;;;;;10239279;28;20094;-89
2023/05/12 04:08:28;;;;;;;0.20;0.20;;;;;;;;;;10225809;28;20070;-89
2023/05/12 04:13:33;;;;;;;0.35;0.20;;;;;;;;;;10230422;28;20051;-89
2023/05/12 04:18:40;;;;;;;0.20;0.20;;;;;;;;;;10231084;28;20492;-89
2023/05/12 04:23:53;;;;;;;0.25;0.22;;;;;;;;;;10230234;28;20152;-91
2023/05/12 04:29:15;;;;;;;0.20;0.20;;;;;;;;;;10220681;28;20102;-89
2023/05/12 04:34:28;;;;;;;0.20;0.20;;;;;;;;;;10228288;28;20416;-89
2023/05/12 04:39:38;;;;;;;0.20;0.20;;;;;;;;;;10223316;28;20541;-89
2023/05/12 04:45:03;;;;;;;0.25;0.25;;;;;;;;;;10220179;28;20058;-89
2023/05/12 04:50:18;;;;;;;0.70;0.20;;;;;;;;;;10230179;28;20043;-89
2023/05/12 04:55:33;;;;;;;0.45;0.25;;;;;;;;;;10231430;28;20645;-89
2023/05/12 05:00:39;;;;;;;0.73;0.38;;;;;;;;;;10251071;28;20106;-89
2023/05/12 05:11:14;;;;;;;0.20;0.20;;;;;;;;;;10229732;28;20458;-89
2023/05/12 05:16:26;;;;;;;0.13;0.13;;;;;;;;;;10223351;28;20043;-89
2023/05/12 05:21:41;;;;;;;0.20;0.20;;;;;;;;;;10217373;28;20135;-89
2023/05/12 05:26:50;;;;;;;0.32;0.20;;;;;;;;;;10228658;28;20571;-89
2023/05/12 05:32:00;;;;;;;0.25;0.25;;;;;;;;;;10229574;28;20043;-89
2023/05/12 05:37:11;;;;;;;0.22;0.22;;;;;;;;;;10229502;28;20043;-89
2023/05/12 05:42:20;;;;;;;0.20;0.20;;;;;;;;;;10228458;28;20051;-89
2023/05/12 05:47:30;;;;;;;0.30;0.30;;;;;;;;;;10230545;28;20046;-89
2023/05/12 05:52:46;;;;;;;1.05;0.40;;;;;;;;;;10229754;28;20051;-89
2023/05/12 05:57:53;;;;;;;0.60;0.52;;;;;;;;;;10227967;28;20114;-88
2023/05/12 06:03:03;;;;;;;0.40;0.38;;;;;;;;;;10220244;28;20047;-89
2023/05/12 06:08:12;;;;;;;1.27;0.35;;;;;;;;;;10214676;28;20056;-89
2023/05/12 06:13:22;;;;;;;0.60;0.60;;;;;;;;;;10244299;28;20074;-88
2023/05/12 06:18:37;;;;;;;0.47;0.47;;;;;;;;;;10219004;28;20047;-89
2023/05/12 06:23:46;;;;;;;2.30;0.50;;;;;;;;;;10228473;28;20051;-89
2023/05/12 06:28:56;;;;;;;0.82;0.60;;;;;;;;;;10226075;28;20051;-89
2023/05/12 06:34:03;;;;;;;0.82;0.70;;;;;;;;;;10227967;28;20058;-88
2023/05/12 06:39:11;;;;;;;0.80;0.80;;;;;;;;;;10227426;28;20512;-88
2023/05/12 06:44:19;;;;;;;0.77;0.77;;;;;;;;;;10232124;28;20101;-89
2023/05/12 06:49:27;;;;;;;1.20;0.80;;;;;;;;;;10217385;28;20417;-89
2023/05/12 06:54:39;;;;;;;1.90;0.75;;;;;;;;;;10227937;28;20059;-88
2023/05/12 06:59:44;;;;;;;0.50;0.50;;;;;;;;;;10231038;28;20075;-88
2023/05/12 07:04:48;;;;;;;0.85;0.80;;;;;;;;;;10228545;28;20035;-88
2023/05/12 07:09:59;;;;;;;1.05;0.82;;;;;;;;;;10227281;28;20051;-88
2023/05/12 07:15:12;;;;;;;1.10;1.00;;;;;;;;;;10246277;28;20043;-89
2023/05/12 07:20:26;;;;;;;2.00;1.30;;;;;;;;;;10228024;28;20122;-88
2023/05/12 07:25:33;;;;;;;1.05;0.95;;;;;;;;;;10231825;28;20133;-89
2023/05/12 07:30:39;;;;;;;0.90;0.90;;;;;;;;;;10231137;28;20085;-88
2023/05/12 07:35:47;;;;;;;1.25;1.10;;;;;;;;;;10228621;28;20047;-88
2023/05/12 07:40:56;;;;;;;1.25;1.15;;;;;;;;;;10227524;28;20047;-89
2023/05/12 07:46:12;;;;;;;1.85;1.13;;;;;;;;;;10252125;28;20050;-89
2023/05/12 07:51:23;;;;;;;2.42;1.20;;;;;;;;;;10234441;28;20047;-88
2023/05/12 07:56:30;;;;;;;1.25;1.15;;;;;;;;;;10234862;28;20134;-88
2023/05/12 08:02:16;;;;;;;2.28;1.15;;;;;;;;;;10233420;28;20138;-89
2023/05/12 08:08:16;;;;;;;1.15;1.05;;;;;;;;;;10212185;28;20043;-88
2023/05/12 08:13:36;;;;;;;1.23;1.10;;;;;;;;;;10224079;28;20043;-90
2023/05/12 08:31:01;;;;;;;;;;;;;;;;;;;;;
2023/05/12 08:37:12;;;;;;;2.15;1.50;;;;;;;;;;10239978;28;20226;-89
2023/05/12 08:42:38;;;;;;;1.92;1.48;;;;;;;;;;10218701;28;20043;-88
2023/05/12 08:48:09;;;;;;;1.42;1.20;;;;;;;;;;10221971;28;20059;-88
2023/05/12 08:53:54;;;;;;;1.60;1.50;;;;;;;;;;10237548;28;20051;-87
2023/05/12 09:17:25;;;;;;;;;;;;;;;;;;;;;
2023/05/12 09:23:21;;;;;;;1.85;1.20;;;;;;;;;;10247283;28;20860;-88
2023/05/12 09:28:52;;;;;;;2.50;1.30;;;;;;;;;;10214133;28;20075;-88
2023/05/12 09:34:22;;;;;;;1.70;1.30;;;;;;;;;;10106231;29;20068;-88
2023/05/12 09:39:47;;;;;;;1.58;1.35;;;;;;;;;;10115040;29;20045;-88
2023/05/12 09:45:09;;;;;;;1.83;1.00;;;;;;;;;;10114556;29;20051;-88
2023/05/12 09:50:34;;;;;;;3.70;1.08;;;;;;;;;;10110970;29;20044;-88
2023/05/12 10:01:46;;;;;;;0.95;0.93;;;;;;;;;;10104159;29;20053;-88
2023/05/12 10:12:43;;;;;;;0.93;0.90;;;;;;;;;;10213095;28;20050;-88
2023/05/12 10:18:52;;;;;;;1.13;1.02;;;;;;;;;;10097026;29;20139;-88
2023/05/12 10:24:19;;;;;;;0.77;0.77;;;;;;;;;;10096689;29;20080;-89
2023/05/12 10:29:57;;;;;;;0.93;0.87;;;;;;;;;;10096465;29;20801;-88
2023/05/12 10:41:29;;;;;;;2.30;1.20;;;;;;;;;;10128246;29;20044;-88
2023/05/12 10:58:02;;;;;;;1.10;1.00;;;;;;;;;;10218572;28;20071;-88
2023/05/12 11:03:27;;;;;;;2.28;1.00;;;;;;;;;;10241683;28;20055;-86
2023/05/12 11:08:36;;;;;;;0.85;0.75;;;;;;;;;;10233424;28;20489;-83
2023/05/12 11:13:40;;;;;;;0.82;0.82;;;;;;;;;;10209152;28;20048;-83
2023/05/12 11:18:44;;;;;;;1.20;1.00;;;;;;;;;;10199385;29;20053;-83
2023/05/12 11:23:52;;;;;;;1.20;1.10;;;;;;;;;;10200602;29;20047;-86
2023/05/12 11:28:56;;;;;;;1.88;1.48;;;;;;;;;;10177966;29;20051;-84
2023/05/12 11:34:05;;;;;;;1.17;1.08;;;;;;;;;;10183373;29;20052;-85
2023/05/12 11:39:16;;;;;;;2.45;1.60;;;;;;;;;;10200891;29;20731;-84
2023/05/12 11:44:21;;;;;;;3.13;1.48;;;;;;;;;;10200862;29;20047;-85
2023/05/12 11:49:25;;;;;;;1.10;1.00;;;;;;;;;;10183937;29;20051;-84
2023/05/12 11:54:30;;;;;;;1.23;0.90;;;;;;;;;;10200080;29;20065;-83
2023/05/12 11:59:35;;;;;;;5.30;1.10;;;;;;;;;;10189702;29;20066;-84
2023/05/12 12:04:40;;;;;;;1.20;1.10;;;;;;;;;;10182722;29;20062;-84
2023/05/12 12:09:45;;;;;;;1.40;1.15;;;;;;;;;;10185069;29;20043;-85
2023/05/12 12:14:48;;;;;;;2.70;1.02;;;;;;;;;;10182924;29;20430;-88
2023/05/12 12:19:55;;;;;;;;;;;;;;;;;;10198065;29;20055;-88
2023/05/12 12:24:59;;;;;;;1.38;1.00;;;;;;;;;;10203759;29;19956;-84
2023/05/12 12:30:03;;;;;;;1.70;1.00;;;;;;;;;;10188226;29;20040;-84
2023/05/12 12:35:10;;;;;;;1.58;1.00;;;;;;;;;;10203516;29;20483;-84
2023/05/12 12:40:15;;;;;;;2.17;0.85;;;;;;;;;;10204176;29;20047;-83
2023/05/12 12:45:18;;;;;;;1.00;0.90;;;;;;;;;;10182431;29;20120;-83
2023/05/12 12:50:22;;;;;;;1.33;1.15;;;;;;;;;;10185405;29;20131;-84
2023/05/12 12:55:28;;;;;;;0.98;0.90;;;;;;;;;;10203667;29;20063;-85
2023/05/12 13:00:31;;;;;;;1.15;0.82;;;;;;;;;;10202153;29;20063;-84
2023/05/12 13:05:35;;;;;;;0.90;0.82;;;;;;;;;;10203420;29;20054;-83
2023/05/12 13:10:40;;;;;;;1.55;1.00;;;;;;;;;;10181273;29;20045;-86
2023/05/12 13:15:44;;;;;;;1.90;1.08;;;;;;;;;;10201409;29;20050;-83
2023/05/12 13:20:50;;;;;;;1.60;1.02;;;;;;;;;;10183867;29;20632;-83
2023/05/12 13:25:57;;;;;;;1.45;1.00;;;;;;;;;;10198588;29;20052;-81
2023/05/12 13:31:00;;;;;;;0.93;0.57;;;;;;;;;;10197200;29;20051;-81
2023/05/12 13:36:05;;;;;;;0.93;0.70;;;;;;;;;;10198878;29;20047;-81
2023/05/12 13:41:11;;;;;;;1.05;0.60;;;;;;;;;;10199653;29;20052;-81
2023/05/12 13:46:14;;;;;;;1.30;0.80;;;;;;;;;;10201301;29;20051;-81
2023/05/12 13:51:18;;;;;;;1.02;0.70;;;;;;;;;;10204435;29;20295;-81
2023/05/12 13:56:23;;;;;;;1.30;0.70;;;;;;;;;;10200934;29;20515;-85
2023/05/12 14:01:26;;;;;;;0.75;0.65;;;;;;;;;;10199936;29;20059;-85
2023/05/12 14:06:31;;;;;;;0.68;0.68;;;;;;;;;;10201558;29;20055;-87
2023/05/12 14:11:37;;;;;;;0.40;0.40;;;;;;;;;;10177997;29;20051;-86
2023/05/12 14:16:43;;;;;;;0.90;0.60;;;;;;;;;;10197897;29;20043;-86
2023/05/12 14:21:47;;;;;;;0.70;0.60;;;;;;;;;;10195967;29;20143;-84
2023/05/12 14:26:53;;;;;;;1.88;0.57;;;;;;;;;;10198704;29;20422;-88
2023/05/12 14:31:58;;;;;;;0.43;0.43;;;;;;;;;;10194178;29;20040;-81
2023/05/12 14:37:05;;;;;;;0.50;0.40;;;;;;;;;;10202296;29;20135;-82
2023/05/12 14:42:10;;;;;;;2.13;0.65;;;;;;;;;;10180101;29;20039;-81
2023/05/12 14:47:36;;;;;;;0.60;0.55;;;;;;;;;;10189976;29;20371;-81
2023/05/12 14:52:43;;;;;;;0.65;0.60;;;;;;;;;;10190263;29;20051;-85
2023/05/12 14:57:48;;;;;;;0.68;0.68;;;;;;;;;;10196972;29;20043;-81
2023/05/12 15:02:51;;;;;;;0.80;0.57;;;;;;;;;;10200323;29;20841;-85
2023/05/12 15:07:55;;;;;;;0.60;0.60;;;;;;;;;;10199909;29;20098;-84
2023/05/12 15:13:00;;;;;;;2.35;0.60;;;;;;;;;;10190906;29;20051;-83
2023/05/12 15:18:04;;;;;;;2.28;0.90;;;;;;;;;;10207720;29;20055;-88
2023/05/12 15:23:07;;;;;;;1.77;0.95;;;;;;;;;;10191500;29;20048;-88
2023/05/12 15:28:12;;;;;;;1.70;0.70;;;;;;;;;;10183012;29;20057;-83
2023/05/12 15:33:16;;;;;;;1.17;0.85;;;;;;;;;;10172854;29;20048;-85
2023/05/12 15:38:21;;;;;;;0.65;0.65;;;;;;;;;;10193368;29;20090;-83
2023/05/12 15:43:25;;;;;;;1.13;0.80;;;;;;;;;;10192414;28;20232;-87
2023/05/12 15:48:29;;;;;;;2.08;1.02;;;;;;;;;;10213018;28;20067;-84
2023/05/12 15:53:34;;;;;;;1.05;0.95;;;;;;;;;;10194358;29;20118;-84
2023/05/12 15:58:39;;;;;;;1.20;0.90;;;;;;;;;;10202043;29;20067;-84
2023/05/12 16:03:42;;;;;;;1.08;0.80;;;;;;;;;;10207229;29;20527;-84
2023/05/12 16:08:46;;;;;;;0.77;0.57;;;;;;;;;;10200575;29;20044;-88
2023/05/12 16:13:52;;;;;;;0.85;0.80;;;;;;;;;;10187991;29;20044;-84
2023/05/12 16:18:55;;;;;;;3.75;0.70;;;;;;;;;;10204275;29;20154;-84
2023/05/12 16:23:58;;;;;;;0.80;0.65;;;;;;;;;;10190902;29;20134;-88
2023/05/12 16:29:05;;;;;;;0.70;0.70;;;;;;;;;;10206143;29;20071;-87
2023/05/12 16:34:08;;;;;;;1.65;0.85;;;;;;;;;;10192247;29;20055;-83
2023/05/12 16:39:12;;;;;;;1.23;0.98;;;;;;;;;;10209092;29;20048;-85
2023/05/12 16:44:17;;;;;;;2.40;1.00;;;;;;;;;;10202617;29;20051;-83
2023/05/12 16:49:21;;;;;;;0.70;0.70;;;;;;;;;;10192737;29;20075;-88
2023/05/12 16:54:24;;;;;;;1.70;0.90;;;;;;;;;;10197478;29;20573;-84
2023/05/12 16:59:31;;;;;;;1.02;0.70;;;;;;;;;;10208175;29;20828;-85
2023/05/12 17:04:34;;;;;;;1.38;0.85;;;;;;;;;;10205939;29;20590;-85
2023/05/12 17:09:37;;;;;;;1.90;0.85;;;;;;;;;;10206890;29;20130;-85
2023/05/12 17:14:42;;;;;;;1.30;0.70;;;;;;;;;;10209278;29;20059;-84
2023/05/12 17:19:46;;;;;;;0.77;0.75;;;;;;;;;;10207386;29;20056;-89
2023/05/12 17:24:50;;;;;;;0.90;0.80;;;;;;;;;;10184761;29;20052;-82
2023/05/12 17:29:55;;;;;;;0.95;0.80;;;;;;;;;;10178676;29;20051;-82
2023/05/12 17:35:37;;;;;;;1.70;0.70;;;;;;;;;;10196240;29;20058;-82
2023/05/12 17:41:42;;;;;;;1.88;0.60;;;;;;;;;;10106251;29;20056;-84
2023/05/12 17:46:48;;;;;;;1.48;0.93;;;;;;;;;;10122418;29;20051;-85
2023/05/12 17:51:54;;;;;;;2.40;0.70;;;;;;;;;;10122476;29;20052;-84
2023/05/12 17:56:57;;;;;;;0.88;0.80;;;;;;;;;;10106244;29;20048;-85
2023/05/12 18:02:02;;;;;;;1.63;0.70;;;;;;;;;;10120342;29;20357;-84
2023/05/12 18:07:06;;;;;;;0.87;0.70;;;;;;;;;;10105579;29;20048;-84
2023/05/12 18:12:10;;;;;;;0.90;0.63;;;;;;;;;;10121070;29;20532;-89
2023/05/12 18:17:15;;;;;;;0.63;0.63;;;;;;;;;;10122009;29;20056;-84
2023/05/12 18:22:19;;;;;;;0.57;0.57;;;;;;;;;;10119975;29;20131;-87
2023/05/12 18:27:22;;;;;;;0.70;0.70;;;;;;;;;;10105427;29;20051;-84
2023/05/12 18:32:27;;;;;;;1.98;0.98;;;;;;;;;;10171204;29;20474;-85
2023/05/12 18:37:30;;;;;;;3.35;0.93;;;;;;;;;;10203892;29;20052;-85
2023/05/12 18:42:34;;;;;;;1.10;1.00;;;;;;;;;;10186208;29;20069;-88
2023/05/12 18:47:40;;;;;;;1.05;0.63;;;;;;;;;;10186019;29;20075;-89
2023/05/12 18:52:43;;;;;;;2.03;0.80;;;;;;;;;;10201637;29;20043;-85
2023/05/12 18:57:47;;;;;;;2.85;0.95;;;;;;;;;;10202467;29;20052;-89
2023/05/12 19:02:51;;;;;;;1.50;0.70;;;;;;;;;;10199298;29;20050;-83
2023/05/12 19:07:55;;;;;;;1.60;0.90;;;;;;;;;;10200976;29;20055;-86
2023/05/12 19:12:58;;;;;;;1.35;0.90;;;;;;;;;;10182019;29;20075;-85
2023/05/12 19:18:03;;;;;;;1.10;1.00;;;;;;;;;;10178496;29;20056;-84
2023/05/12 19:23:06;;;;;;;1.90;1.10;;;;;;;;;;10173745;29;20040;-87
2023/05/12 19:28:10;;;;;;;2.35;0.80;;;;;;;;;;10193692;29;20062;-86
2023/05/12 19:33:15;;;;;;;1.42;1.02;;;;;;;;;;10195887;29;20093;-85
2023/05/12 19:38:19;;;;;;;1.00;0.77;;;;;;;;;;10194188;29;20484;-89
2023/05/12 19:43:22;;;;;;;2.85;1.10;;;;;;;;;;10179766;29;20542;-85
2023/05/12 19:48:27;;;;;;;1.52;1.17;;;;;;;;;;10175128;29;20064;-89
2023/05/12 19:53:31;;;;;;;3.58;1.13;;;;;;;;;;10182505;29;20126;-85
2023/05/12 19:58:34;;;;;;;1.63;1.00;;;;;;;;;;10185701;28;20051;-85
2023/05/12 20:03:39;;;;;;;2.00;1.00;;;;;;;;;;10213871;28;20046;-85
2023/05/12 20:08:42;;;;;;;2.15;0.98;;;;;;;;;;10183952;29;20094;-85
2023/05/12 20:13:46;;;;;;;1.50;1.30;;;;;;;;;;10193527;29;20039;-88
2023/05/12 20:18:51;;;;;;;3.45;1.33;;;;;;;;;;10175463;29;20130;-85
2023/05/12 20:23:54;;;;;;;1.75;1.50;;;;;;;;;;10174930;29;20047;-89
2023/05/12 20:28:58;;;;;;;2.10;1.50;;;;;;;;;;10189147;29;20071;-86
2023/05/12 20:34:03;;;;;;;2.08;1.58;;;;;;;;;;10197518;29;20055;-87
2023/05/12 20:39:07;;;;;;;3.78;1.30;;;;;;;;;;10196589;29;20161;-88
2023/05/12 20:44:12;;;;;;;1.85;1.10;;;;;;;;;;10195894;29;20048;-85
2023/05/12 20:49:17;;;;;;;1.27;0.90;;;;;;;;;;10203960;29;20224;-85
2023/05/12 20:54:20;;;;;;;2.30;1.83;;;;;;;;;;10202384;29;20512;-88
2023/05/12 20:59:24;;;;;;;5.78;2.90;;;;;;;;;;10184493;29;20048;-85
2023/05/12 21:04:29;;;;;;;5.20;2.42;;;;;;;;;;10204275;29;20050;-89
2023/05/12 21:09:32;;;;;;;3.20;2.00;;;;;;;;;;10200468;29;20063;-85
2023/05/12 21:14:39;;;;;;;1.95;1.23;;;;;;;;;;10200626;29;20047;-85
2023/05/12 21:19:43;;;;;;;2.13;1.50;;;;;;;;;;10179969;29;20078;-85
2023/05/12 21:24:47;;;;;;;2.05;1.25;;;;;;;;;;10186230;29;20048;-86
2023/05/12 21:29:51;;;;;;;2.83;1.45;;;;;;;;;;10195123;29;20055;-86
2023/05/12 21:34:56;;;;;;;1.95;1.08;;;;;;;;;;10201486;29;20624;-86
2023/05/12 21:40:00;;;;;;;1.30;1.20;;;;;;;;;;10195742;29;20130;-89
2023/05/12 21:45:04;;;;;;;3.28;1.25;;;;;;;;;;10183971;29;20050;-86
2023/05/12 21:50:11;;;;;;;2.30;1.05;;;;;;;;;;10178277;29;20068;-86
2023/05/12 21:55:16;;;;;;;2.60;1.40;;;;;;;;;;10202274;29;20050;-85
2023/05/12 22:00:20;;;;;;;1.95;1.17;;;;;;;;;;10177715;29;20570;-86
2023/05/12 22:05:25;;;;;;;2.33;1.10;;;;;;;;;;10200747;29;20083;-87
2023/05/12 22:10:30;;;;;;;1.83;1.27;;;;;;;;;;10196513;29;20043;-86
2023/05/12 22:15:33;;;;;;;2.10;1.17;;;;;;;;;;10199331;29;20074;-86
2023/05/12 22:20:39;;;;;;;2.72;1.23;;;;;;;;;;10193729;29;20412;-85
2023/05/12 22:25:42;;;;;;;1.80;1.42;;;;;;;;;;10200531;29;20052;-85
2023/05/12 22:30:46;;;;;;;1.73;1.25;;;;;;;;;;10177763;29;20044;-86
2023/05/12 22:35:50;;;;;;;1.40;1.27;;;;;;;;;;10196586;29;20116;-84
2023/05/12 22:40:54;;;;;;;2.38;1.50;;;;;;;;;;10172882;29;20050;-83
2023/05/12 22:45:57;;;;;;;3.65;1.67;;;;;;;;;;10193333;29;20055;-84
2023/05/12 22:51:02;;;;;;;3.33;1.33;;;;;;;;;;10173225;29;20049;-83
2023/05/12 22:56:06;;;;;;;1.45;1.17;;;;;;;;;;10192684;29;20048;-83
2023/05/12 23:01:10;;;;;;;2.47;1.35;;;;;;;;;;10183173;29;20051;-84
2023/05/12 23:06:15;;;;;;;1.40;1.30;;;;;;;;;;10260778;23;20105;-85
2023/05/12 23:11:19;;;;;;;0.95;0.95;;;;;;;;;;10240276;28;20050;-86
2023/05/12 23:16:23;;;;;;;1.10;1.02;;;;;;;;;;10246121;28;20043;-86
2023/05/12 23:21:28;;;;;;;1.45;1.15;;;;;;;;;;10225672;28;20145;-86
2023/05/12 23:26:31;;;;;;;2.22;1.13;;;;;;;;;;10229557;28;20053;-87
2023/05/12 23:31:34;;;;;;;1.65;1.42;;;;;;;;;;10229527;28;20130;-86
2023/05/12 23:36:39;;;;;;;3.65;1.30;;;;;;;;;;10253395;28;20067;-86
2023/05/12 23:41:44;;;;;;;1.55;1.23;;;;;;;;;;10228618;28;20043;-86
2023/05/12 23:46:48;;;;;;;1.40;1.17;;;;;;;;;;10245937;28;20043;-86
2023/05/12 23:51:52;;;;;;;1.33;1.20;;;;;;;;;;10228389;28;20134;-86
2023/05/12 23:56:56;;;;;;;2.25;1.50;;;;;;;;;;10228791;28;20218;-86
